sensor_id;sensor_type;location;lat;lon;timestamp;P1;durP1;ratioP1;P2;durP2;ratioP2
68947;SDS011;55996;49.546;7.400;2022-10-16T00:00:52;3.23;;;2.47;;
68947;SDS011;55996;49.546;7.400;2022-10-16T00:03:17;2.60;;;2.40;;
68947;SDS011;55996;49.546;7.400;2022-10-16T00:05:43;4.17;;;2.57;;
68947;SDS011;55996;49.546;7.400;2022-10-16T00:08:10;4.13;;;3.00;;
68947;SDS011;55996;49.546;7.400;2022-10-16T00:10:36;6.77;;;2.50;;
68947;SDS011;55996;49.546;7.400;2022-10-16T00:13:02;3.03;;;2.10;;
68947;SDS011;55996;49.546;7.400;2022-10-16T00:15:28;2.83;;;2.10;;
68947;SDS011;55996;49.546;7.400;2022-10-16T00:17:54;3.70;;;1.63;;
68947;SDS011;55996;49.546;7.400;2022-10-16T00:20:19;2.17;;;1.87;;
68947;SDS011;55996;49.546;7.400;2022-10-16T00:22:45;1.87;;;1.60;;
68947;SDS011;55996;49.546;7.400;2022-10-16T00:25:10;3.10;;;1.50;;
68947;SDS011;55996;49.546;7.400;2022-10-16T00:27:36;6.10;;;1.80;;
68947;SDS011;55996;49.546;7.400;2022-10-16T00:30:02;1.63;;;1.53;;
68947;SDS011;55996;49.546;7.400;2022-10-16T00:32:28;1.60;;;1.33;;
68947;SDS011;55996;49.546;7.400;2022-10-16T00:34:53;3.57;;;1.30;;
68947;SDS011;55996;49.546;7.400;2022-10-16T00:37:20;1.63;;;1.37;;
68947;SDS011;55996;49.546;7.400;2022-10-16T00:39:45;2.33;;;1.40;;
68947;SDS011;55996;49.546;7.400;2022-10-16T00:42:14;2.40;;;1.60;;
68947;SDS011;55996;49.546;7.400;2022-10-16T00:44:46;1.90;;;1.10;;
68947;SDS011;55996;49.546;7.400;2022-10-16T00:47:54;2.83;;;1.30;;
68947;SDS011;55996;49.546;7.400;2022-10-16T00:50:26;2.57;;;1.23;;
68947;SDS011;55996;49.546;7.400;2022-10-16T00:52:54;2.73;;;1.57;;
68947;SDS011;55996;49.546;7.400;2022-10-16T00:55:22;1.63;;;1.30;;
68947;SDS011;55996;49.546;7.400;2022-10-16T00:57:48;1.37;;;1.20;;
68947;SDS011;55996;49.546;7.400;2022-10-16T01:00:19;3.90;;;1.30;;
68947;SDS011;55996;49.546;7.400;2022-10-16T01:02:54;5.17;;;1.40;;
68947;SDS011;55996;49.546;7.400;2022-10-16T01:05:24;1.50;;;1.20;;
68947;SDS011;55996;49.546;7.400;2022-10-16T01:08:18;2.10;;;1.30;;
68947;SDS011;55996;49.546;7.400;2022-10-16T01:13:27;3.23;;;1.23;;
68947;SDS011;55996;49.546;7.400;2022-10-16T01:16:04;2.90;;;1.10;;
68947;SDS011;55996;49.546;7.400;2022-10-16T01:18:34;1.10;;;1.10;;
68947;SDS011;55996;49.546;7.400;2022-10-16T01:21:16;2.73;;;1.47;;
68947;SDS011;55996;49.546;7.400;2022-10-16T01:24:15;2.30;;;1.27;;
68947;SDS011;55996;49.546;7.400;2022-10-16T01:27:01;2.87;;;1.10;;
68947;SDS011;55996;49.546;7.400;2022-10-16T01:29:33;4.30;;;1.67;;
68947;SDS011;55996;49.546;7.400;2022-10-16T01:32:10;2.80;;;1.00;;
68947;SDS011;55996;49.546;7.400;2022-10-16T01:34:44;5.60;;;1.33;;
68947;SDS011;55996;49.546;7.400;2022-10-16T01:37:15;3.63;;;1.17;;
68947;SDS011;55996;49.546;7.400;2022-10-16T01:39:47;1.37;;;1.27;;
68947;SDS011;55996;49.546;7.400;2022-10-16T01:42:20;1.50;;;1.27;;
68947;SDS011;55996;49.546;7.400;2022-10-16T01:44:49;3.20;;;1.20;;
68947;SDS011;55996;49.546;7.400;2022-10-16T01:47:18;1.53;;;1.03;;
68947;SDS011;55996;49.546;7.400;2022-10-16T01:49:47;4.73;;;1.33;;
68947;SDS011;55996;49.546;7.400;2022-10-16T01:52:17;4.00;;;1.10;;
68947;SDS011;55996;49.546;7.400;2022-10-16T01:54:47;2.20;;;1.20;;
68947;SDS011;55996;49.546;7.400;2022-10-16T01:57:17;1.30;;;1.20;;
68947;SDS011;55996;49.546;7.400;2022-10-16T01:59:47;1.43;;;1.20;;
68947;SDS011;55996;49.546;7.400;2022-10-16T02:02:17;2.97;;;1.40;;
68947;SDS011;55996;49.546;7.400;2022-10-16T02:04:46;4.07;;;1.37;;
68947;SDS011;55996;49.546;7.400;2022-10-16T02:07:16;1.33;;;1.20;;
68947;SDS011;55996;49.546;7.400;2022-10-16T02:09:42;1.60;;;1.00;;
68947;SDS011;55996;49.546;7.400;2022-10-16T02:12:10;1.20;;;1.10;;
68947;SDS011;55996;49.546;7.400;2022-10-16T02:14:40;2.60;;;1.10;;
68947;SDS011;55996;49.546;7.400;2022-10-16T02:17:13;2.90;;;1.10;;
68947;SDS011;55996;49.546;7.400;2022-10-16T02:19:41;2.90;;;1.30;;
68947;SDS011;55996;49.546;7.400;2022-10-16T02:22:15;3.47;;;1.00;;
68947;SDS011;55996;49.546;7.400;2022-10-16T02:24:51;2.30;;;1.20;;
68947;SDS011;55996;49.546;7.400;2022-10-16T02:27:25;1.33;;;1.00;;
68947;SDS011;55996;49.546;7.400;2022-10-16T02:32:44;2.40;;;0.90;;
68947;SDS011;55996;49.546;7.400;2022-10-16T02:35:13;0.90;;;0.90;;
68947;SDS011;55996;49.546;7.400;2022-10-16T02:37:40;4.23;;;0.77;;
68947;SDS011;55996;49.546;7.400;2022-10-16T02:40:07;2.00;;;1.00;;
68947;SDS011;55996;49.546;7.400;2022-10-16T02:42:36;2.53;;;1.03;;
68947;SDS011;55996;49.546;7.400;2022-10-16T02:45:04;4.07;;;1.10;;
68947;SDS011;55996;49.546;7.400;2022-10-16T02:47:30;1.27;;;1.13;;
68947;SDS011;55996;49.546;7.400;2022-10-16T02:49:56;3.03;;;1.33;;
68947;SDS011;55996;49.546;7.400;2022-10-16T02:52:21;3.63;;;1.27;;
68947;SDS011;55996;49.546;7.400;2022-10-16T02:54:47;4.57;;;1.30;;
68947;SDS011;55996;49.546;7.400;2022-10-16T02:57:12;2.80;;;1.10;;
68947;SDS011;55996;49.546;7.400;2022-10-16T02:59:38;1.60;;;1.10;;
68947;SDS011;55996;49.546;7.400;2022-10-16T03:02:03;1.70;;;1.00;;
68947;SDS011;55996;49.546;7.400;2022-10-16T03:04:29;1.50;;;1.10;;
68947;SDS011;55996;49.546;7.400;2022-10-16T03:06:54;2.33;;;1.10;;
68947;SDS011;55996;49.546;7.400;2022-10-16T03:09:20;3.93;;;1.10;;
68947;SDS011;55996;49.546;7.400;2022-10-16T03:11:45;2.80;;;1.00;;
68947;SDS011;55996;49.546;7.400;2022-10-16T03:14:11;3.07;;;1.30;;
68947;SDS011;55996;49.546;7.400;2022-10-16T03:16:36;1.43;;;1.10;;
68947;SDS011;55996;49.546;7.400;2022-10-16T03:19:01;2.77;;;0.97;;
68947;SDS011;55996;49.546;7.400;2022-10-16T03:21:27;2.40;;;1.20;;
68947;SDS011;55996;49.546;7.400;2022-10-16T03:23:52;5.70;;;1.30;;
68947;SDS011;55996;49.546;7.400;2022-10-16T03:26:18;1.63;;;1.40;;
68947;SDS011;55996;49.546;7.400;2022-10-16T03:28:43;2.03;;;1.83;;
68947;SDS011;55996;49.546;7.400;2022-10-16T03:31:09;1.77;;;1.57;;
68947;SDS011;55996;49.546;7.400;2022-10-16T03:33:34;3.47;;;1.93;;
68947;SDS011;55996;49.546;7.400;2022-10-16T03:35:59;2.23;;;2.03;;
68947;SDS011;55996;49.546;7.400;2022-10-16T03:38:25;5.27;;;2.30;;
68947;SDS011;55996;49.546;7.400;2022-10-16T03:40:50;4.53;;;2.50;;
68947;SDS011;55996;49.546;7.400;2022-10-16T03:43:16;2.77;;;2.10;;
68947;SDS011;55996;49.546;7.400;2022-10-16T03:45:41;2.93;;;2.30;;
68947;SDS011;55996;49.546;7.400;2022-10-16T03:48:07;2.57;;;2.37;;
68947;SDS011;55996;49.546;7.400;2022-10-16T03:50:32;4.83;;;2.60;;
68947;SDS011;55996;49.546;7.400;2022-10-16T03:52:58;8.03;;;2.50;;
68947;SDS011;55996;49.546;7.400;2022-10-16T03:55:23;2.53;;;2.00;;
68947;SDS011;55996;49.546;7.400;2022-10-16T03:57:48;2.67;;;2.20;;
68947;SDS011;55996;49.546;7.400;2022-10-16T04:00:14;3.93;;;2.80;;
68947;SDS011;55996;49.546;7.400;2022-10-16T04:02:39;3.53;;;2.40;;
68947;SDS011;55996;49.546;7.400;2022-10-16T04:05:05;4.17;;;2.57;;
68947;SDS011;55996;49.546;7.400;2022-10-16T04:07:31;4.33;;;2.80;;
68947;SDS011;55996;49.546;7.400;2022-10-16T04:09:57;3.40;;;2.53;;
68947;SDS011;55996;49.546;7.400;2022-10-16T04:12:23;2.90;;;2.27;;
68947;SDS011;55996;49.546;7.400;2022-10-16T04:14:49;3.93;;;2.60;;
68947;SDS011;55996;49.546;7.400;2022-10-16T04:17:15;2.37;;;2.03;;
68947;SDS011;55996;49.546;7.400;2022-10-16T04:19:41;4.60;;;2.10;;
68947;SDS011;55996;49.546;7.400;2022-10-16T04:22:06;5.47;;;2.00;;
68947;SDS011;55996;49.546;7.400;2022-10-16T04:24:32;1.80;;;1.70;;
68947;SDS011;55996;49.546;7.400;2022-10-16T04:26:57;2.00;;;1.80;;
68947;SDS011;55996;49.546;7.400;2022-10-16T04:29:22;2.43;;;2.10;;
68947;SDS011;55996;49.546;7.400;2022-10-16T04:31:48;2.30;;;1.73;;
68947;SDS011;55996;49.546;7.400;2022-10-16T04:34:13;2.00;;;1.90;;
68947;SDS011;55996;49.546;7.400;2022-10-16T04:36:39;3.67;;;1.80;;
68947;SDS011;55996;49.546;7.400;2022-10-16T04:39:04;3.70;;;2.00;;
68947;SDS011;55996;49.546;7.400;2022-10-16T04:41:29;2.33;;;1.93;;
68947;SDS011;55996;49.546;7.400;2022-10-16T04:43:55;2.30;;;1.93;;
68947;SDS011;55996;49.546;7.400;2022-10-16T04:46:20;3.03;;;1.90;;
68947;SDS011;55996;49.546;7.400;2022-10-16T04:48:46;4.10;;;2.00;;
68947;SDS011;55996;49.546;7.400;2022-10-16T04:51:11;4.40;;;1.90;;
68947;SDS011;55996;49.546;7.400;2022-10-16T04:53:37;2.43;;;2.00;;
68947;SDS011;55996;49.546;7.400;2022-10-16T04:56:02;1.93;;;1.80;;
68947;SDS011;55996;49.546;7.400;2022-10-16T04:58:28;4.50;;;2.10;;
68947;SDS011;55996;49.546;7.400;2022-10-16T05:00:53;2.17;;;1.83;;
68947;SDS011;55996;49.546;7.400;2022-10-16T05:03:19;2.77;;;1.83;;
68947;SDS011;55996;49.546;7.400;2022-10-16T05:05:44;2.83;;;1.80;;
68947;SDS011;55996;49.546;7.400;2022-10-16T05:08:11;3.43;;;1.53;;
68947;SDS011;55996;49.546;7.400;2022-10-16T05:10:38;1.93;;;1.70;;
68947;SDS011;55996;49.546;7.400;2022-10-16T05:13:03;4.70;;;1.97;;
68947;SDS011;55996;49.546;7.400;2022-10-16T05:15:30;2.70;;;1.90;;
68947;SDS011;55996;49.546;7.400;2022-10-16T05:17:56;1.97;;;1.87;;
68947;SDS011;55996;49.546;7.400;2022-10-16T05:20:21;1.80;;;1.50;;
68947;SDS011;55996;49.546;7.400;2022-10-16T05:22:47;1.63;;;1.53;;
68947;SDS011;55996;49.546;7.400;2022-10-16T05:25:13;2.70;;;1.23;;
68947;SDS011;55996;49.546;7.400;2022-10-16T05:27:39;2.03;;;1.50;;
68947;SDS011;55996;49.546;7.400;2022-10-16T05:30:04;2.70;;;1.63;;
68947;SDS011;55996;49.546;7.400;2022-10-16T05:32:30;3.20;;;1.90;;
68947;SDS011;55996;49.546;7.400;2022-10-16T05:34:55;1.87;;;1.50;;
68947;SDS011;55996;49.546;7.400;2022-10-16T05:37:21;1.50;;;1.40;;
68947;SDS011;55996;49.546;7.400;2022-10-16T05:39:46;1.43;;;1.33;;
68947;SDS011;55996;49.546;7.400;2022-10-16T05:42:12;2.37;;;1.20;;
68947;SDS011;55996;49.546;7.400;2022-10-16T05:44:37;4.00;;;1.60;;
68947;SDS011;55996;49.546;7.400;2022-10-16T05:47:03;4.47;;;1.17;;
68947;SDS011;55996;49.546;7.400;2022-10-16T05:49:28;3.40;;;1.57;;
68947;SDS011;55996;49.546;7.400;2022-10-16T05:51:54;3.13;;;1.37;;
68947;SDS011;55996;49.546;7.400;2022-10-16T05:54:19;3.00;;;1.27;;
68947;SDS011;55996;49.546;7.400;2022-10-16T05:56:44;3.33;;;1.30;;
68947;SDS011;55996;49.546;7.400;2022-10-16T05:59:10;2.57;;;1.40;;
68947;SDS011;55996;49.546;7.400;2022-10-16T06:01:35;2.73;;;1.40;;
68947;SDS011;55996;49.546;7.400;2022-10-16T06:04:01;3.47;;;1.47;;
68947;SDS011;55996;49.546;7.400;2022-10-16T06:06:27;2.00;;;1.20;;
68947;SDS011;55996;49.546;7.400;2022-10-16T06:08:53;3.00;;;1.20;;
68947;SDS011;55996;49.546;7.400;2022-10-16T06:11:24;2.07;;;1.07;;
68947;SDS011;55996;49.546;7.400;2022-10-16T06:13:52;3.10;;;1.20;;
68947;SDS011;55996;49.546;7.400;2022-10-16T06:16:19;2.13;;;1.40;;
68947;SDS011;55996;49.546;7.400;2022-10-16T06:18:45;4.07;;;1.40;;
68947;SDS011;55996;49.546;7.400;2022-10-16T06:21:13;6.00;;;1.50;;
68947;SDS011;55996;49.546;7.400;2022-10-16T06:23:41;1.30;;;1.20;;
68947;SDS011;55996;49.546;7.400;2022-10-16T06:26:07;5.20;;;1.20;;
68947;SDS011;55996;49.546;7.400;2022-10-16T06:28:37;7.53;;;1.30;;
68947;SDS011;55996;49.546;7.400;2022-10-16T06:31:03;2.30;;;1.20;;
68947;SDS011;55996;49.546;7.400;2022-10-16T06:33:30;1.43;;;1.23;;
68947;SDS011;55996;49.546;7.400;2022-10-16T06:36:12;3.83;;;1.37;;
68947;SDS011;55996;49.546;7.400;2022-10-16T06:38:39;5.37;;;1.30;;
68947;SDS011;55996;49.546;7.400;2022-10-16T06:41:05;1.40;;;1.23;;
68947;SDS011;55996;49.546;7.400;2022-10-16T06:43:32;1.93;;;1.30;;
68947;SDS011;55996;49.546;7.400;2022-10-16T06:46:00;4.83;;;1.73;;
68947;SDS011;55996;49.546;7.400;2022-10-16T06:48:26;4.00;;;1.70;;
68947;SDS011;55996;49.546;7.400;2022-10-16T06:53:25;4.30;;;2.73;;
68947;SDS011;55996;49.546;7.400;2022-10-16T06:55:51;3.30;;;3.03;;
68947;SDS011;55996;49.546;7.400;2022-10-16T06:58:17;3.67;;;2.80;;
68947;SDS011;55996;49.546;7.400;2022-10-16T07:00:42;3.30;;;3.00;;
68947;SDS011;55996;49.546;7.400;2022-10-16T07:03:08;3.40;;;2.70;;
68947;SDS011;55996;49.546;7.400;2022-10-16T07:05:37;3.83;;;2.50;;
68947;SDS011;55996;49.546;7.400;2022-10-16T07:08:03;2.73;;;2.53;;
68947;SDS011;55996;49.546;7.400;2022-10-16T07:10:30;3.07;;;2.23;;
68947;SDS011;55996;49.546;7.400;2022-10-16T07:12:56;3.43;;;2.20;;
68947;SDS011;55996;49.546;7.400;2022-10-16T07:15:21;4.80;;;1.90;;
68947;SDS011;55996;49.546;7.400;2022-10-16T07:17:47;12.17;;;3.77;;
68947;SDS011;55996;49.546;7.400;2022-10-16T07:20:12;5.03;;;2.70;;
68947;SDS011;55996;49.546;7.400;2022-10-16T07:22:37;5.23;;;3.00;;
68947;SDS011;55996;49.546;7.400;2022-10-16T07:25:03;3.00;;;2.70;;
68947;SDS011;55996;49.546;7.400;2022-10-16T07:27:28;4.07;;;2.73;;
68947;SDS011;55996;49.546;7.400;2022-10-16T07:29:54;5.83;;;2.50;;
68947;SDS011;55996;49.546;7.400;2022-10-16T07:32:19;3.63;;;2.30;;
68947;SDS011;55996;49.546;7.400;2022-10-16T07:34:45;2.63;;;2.43;;
68947;SDS011;55996;49.546;7.400;2022-10-16T07:37:10;2.63;;;2.43;;
68947;SDS011;55996;49.546;7.400;2022-10-16T07:39:36;4.87;;;2.57;;
68947;SDS011;55996;49.546;7.400;2022-10-16T07:42:01;3.50;;;3.20;;
68947;SDS011;55996;49.546;7.400;2022-10-16T07:44:27;4.53;;;3.30;;
68947;SDS011;55996;49.546;7.400;2022-10-16T07:46:52;3.20;;;2.90;;
68947;SDS011;55996;49.546;7.400;2022-10-16T07:49:18;3.13;;;2.83;;
68947;SDS011;55996;49.546;7.400;2022-10-16T07:51:43;5.67;;;3.03;;
68947;SDS011;55996;49.546;7.400;2022-10-16T07:54:09;2.97;;;2.50;;
68947;SDS011;55996;49.546;7.400;2022-10-16T07:56:37;3.10;;;2.90;;
68947;SDS011;55996;49.546;7.400;2022-10-16T07:59:03;3.93;;;3.13;;
68947;SDS011;55996;49.546;7.400;2022-10-16T08:01:28;3.30;;;3.00;;
68947;SDS011;55996;49.546;7.400;2022-10-16T08:03:54;3.67;;;3.07;;
68947;SDS011;55996;49.546;7.400;2022-10-16T08:06:20;5.93;;;3.10;;
68947;SDS011;55996;49.546;7.400;2022-10-16T08:08:46;3.23;;;3.03;;
68947;SDS011;55996;49.546;7.400;2022-10-16T08:11:12;4.07;;;3.20;;
68947;SDS011;55996;49.546;7.400;2022-10-16T08:13:39;5.23;;;3.17;;
68947;SDS011;55996;49.546;7.400;2022-10-16T08:16:04;4.60;;;3.00;;
68947;SDS011;55996;49.546;7.400;2022-10-16T08:18:33;3.33;;;3.03;;
68947;SDS011;55996;49.546;7.400;2022-10-16T08:20:59;4.57;;;2.37;;
68947;SDS011;55996;49.546;7.400;2022-10-16T08:23:25;2.50;;;2.30;;
68947;SDS011;55996;49.546;7.400;2022-10-16T08:25:52;3.23;;;2.40;;
68947;SDS011;55996;49.546;7.400;2022-10-16T08:28:18;2.47;;;2.00;;
68947;SDS011;55996;49.546;7.400;2022-10-16T08:30:44;2.63;;;2.07;;
68947;SDS011;55996;49.546;7.400;2022-10-16T08:33:10;2.83;;;2.33;;
68947;SDS011;55996;49.546;7.400;2022-10-16T08:35:35;2.77;;;1.80;;
68947;SDS011;55996;49.546;7.400;2022-10-16T08:38:02;4.37;;;2.30;;
68947;SDS011;55996;49.546;7.400;2022-10-16T08:40:29;3.17;;;2.60;;
68947;SDS011;55996;49.546;7.400;2022-10-16T08:46:05;6.23;;;5.47;;
68947;SDS011;55996;49.546;7.400;2022-10-16T08:51:16;6.93;;;4.73;;
68947;SDS011;55996;49.546;7.400;2022-10-16T08:56:27;2.37;;;2.13;;
68947;SDS011;55996;49.546;7.400;2022-10-16T08:58:53;2.53;;;2.10;;
68947;SDS011;55996;49.546;7.400;2022-10-16T09:01:20;2.67;;;1.60;;
68947;SDS011;55996;49.546;7.400;2022-10-16T09:11:48;2.17;;;1.90;;
68947;SDS011;55996;49.546;7.400;2022-10-16T09:19:46;2.83;;;2.30;;
68947;SDS011;55996;49.546;7.400;2022-10-16T09:22:18;3.43;;;2.47;;
68947;SDS011;55996;49.546;7.400;2022-10-16T09:24:51;3.37;;;2.40;;
68947;SDS011;55996;49.546;7.400;2022-10-16T09:27:16;3.13;;;2.40;;
68947;SDS011;55996;49.546;7.400;2022-10-16T09:29:42;3.33;;;2.50;;
68947;SDS011;55996;49.546;7.400;2022-10-16T09:32:14;4.77;;;2.40;;
68947;SDS011;55996;49.546;7.400;2022-10-16T09:34:48;6.57;;;2.40;;
68947;SDS011;55996;49.546;7.400;2022-10-16T09:37:17;2.90;;;2.70;;
68947;SDS011;55996;49.546;7.400;2022-10-16T09:39:47;3.67;;;2.60;;
68947;SDS011;55996;49.546;7.400;2022-10-16T09:42:15;4.27;;;2.57;;
68947;SDS011;55996;49.546;7.400;2022-10-16T09:44:42;5.47;;;4.17;;
68947;SDS011;55996;49.546;7.400;2022-10-16T09:52:23;3.00;;;2.70;;
68947;SDS011;55996;49.546;7.400;2022-10-16T09:57:19;3.00;;;2.43;;
68947;SDS011;55996;49.546;7.400;2022-10-16T09:59:47;4.30;;;2.57;;
68947;SDS011;55996;49.546;7.400;2022-10-16T10:02:17;3.50;;;2.73;;
68947;SDS011;55996;49.546;7.400;2022-10-16T10:04:48;4.90;;;2.83;;
68947;SDS011;55996;49.546;7.400;2022-10-16T10:07:30;4.87;;;3.30;;
68947;SDS011;55996;49.546;7.400;2022-10-16T10:10:02;5.10;;;3.20;;
68947;SDS011;55996;49.546;7.400;2022-10-16T10:12:30;3.33;;;3.03;;
68947;SDS011;55996;49.546;7.400;2022-10-16T10:15:12;3.17;;;2.87;;
68947;SDS011;55996;49.546;7.400;2022-10-16T10:17:47;3.90;;;3.10;;
68947;SDS011;55996;49.546;7.400;2022-10-16T10:20:31;3.40;;;2.87;;
68947;SDS011;55996;49.546;7.400;2022-10-16T10:22:59;4.37;;;3.20;;
68947;SDS011;55996;49.546;7.400;2022-10-16T10:25:31;3.83;;;3.43;;
68947;SDS011;55996;49.546;7.400;2022-10-16T10:55:08;4.20;;;3.80;;
68947;SDS011;55996;49.546;7.400;2022-10-16T11:00:33;5.17;;;3.87;;
68947;SDS011;55996;49.546;7.400;2022-10-16T11:03:21;4.33;;;3.93;;
68947;SDS011;55996;49.546;7.400;2022-10-16T11:06:18;4.93;;;4.13;;
68947;SDS011;55996;49.546;7.400;2022-10-16T11:08:50;4.30;;;3.47;;
68947;SDS011;55996;49.546;7.400;2022-10-16T11:13:58;8.97;;;4.70;;
68947;SDS011;55996;49.546;7.400;2022-10-16T11:16:35;8.07;;;4.20;;
68947;SDS011;55996;49.546;7.400;2022-10-16T11:21:54;3.83;;;3.10;;
68947;SDS011;55996;49.546;7.400;2022-10-16T11:27:21;4.25;;;3.22;;
68947;SDS011;55996;49.546;7.400;2022-10-16T11:30:02;4.93;;;3.80;;
68947;SDS011;55996;49.546;7.400;2022-10-16T11:32:31;4.18;;;3.13;;
68947;SDS011;55996;49.546;7.400;2022-10-16T11:49:42;7.50;;;2.53;;
68947;SDS011;55996;49.546;7.400;2022-10-16T11:54:54;2.38;;;2.17;;
68947;SDS011;55996;49.546;7.400;2022-10-16T11:57:27;6.67;;;2.37;;
68947;SDS011;55996;49.546;7.400;2022-10-16T12:02:32;4.60;;;2.53;;
68947;SDS011;55996;49.546;7.400;2022-10-16T12:08:19;5.23;;;2.53;;
68947;SDS011;55996;49.546;7.400;2022-10-16T12:10:46;2.73;;;2.37;;
68947;SDS011;55996;49.546;7.400;2022-10-16T12:18:37;3.07;;;2.60;;
68947;SDS011;55996;49.546;7.400;2022-10-16T12:21:04;2.60;;;2.40;;
68947;SDS011;55996;49.546;7.400;2022-10-16T12:23:31;3.73;;;2.30;;
68947;SDS011;55996;49.546;7.400;2022-10-16T12:26:01;4.57;;;2.30;;
68947;SDS011;55996;49.546;7.400;2022-10-16T12:28:28;5.03;;;2.30;;
68947;SDS011;55996;49.546;7.400;2022-10-16T12:31:00;3.37;;;2.80;;
68947;SDS011;55996;49.546;7.400;2022-10-16T12:35:53;2.97;;;2.63;;
68947;SDS011;55996;49.546;7.400;2022-10-16T12:40:46;7.40;;;3.30;;
68947;SDS011;55996;49.546;7.400;2022-10-16T12:45:45;4.43;;;2.60;;
68947;SDS011;55996;49.546;7.400;2022-10-16T12:48:18;7.60;;;3.23;;
68947;SDS011;55996;49.546;7.400;2022-10-16T12:50:46;3.67;;;2.93;;
68947;SDS011;55996;49.546;7.400;2022-10-16T12:53:30;3.13;;;2.30;;
68947;SDS011;55996;49.546;7.400;2022-10-16T13:18:11;3.97;;;2.70;;
68947;SDS011;55996;49.546;7.400;2022-10-16T13:20:53;3.17;;;2.22;;
68947;SDS011;55996;49.546;7.400;2022-10-16T13:26:06;6.38;;;2.25;;
68947;SDS011;55996;49.546;7.400;2022-10-16T13:28:41;2.67;;;2.13;;
68947;SDS011;55996;49.546;7.400;2022-10-16T13:31:18;4.75;;;2.20;;
68947;SDS011;55996;49.546;7.400;2022-10-16T13:33:50;2.20;;;1.90;;
68947;SDS011;55996;49.546;7.400;2022-10-16T13:36:24;6.20;;;2.40;;
68947;SDS011;55996;49.546;7.400;2022-10-16T13:41:45;2.65;;;2.10;;
68947;SDS011;55996;49.546;7.400;2022-10-16T13:44:22;4.47;;;2.20;;
68947;SDS011;55996;49.546;7.400;2022-10-16T13:46:57;4.65;;;2.40;;
68947;SDS011;55996;49.546;7.400;2022-10-16T13:49:24;5.03;;;2.10;;
68947;SDS011;55996;49.546;7.400;2022-10-16T13:51:56;3.60;;;2.30;;
68947;SDS011;55996;49.546;7.400;2022-10-16T13:54:23;9.23;;;2.30;;
68947;SDS011;55996;49.546;7.400;2022-10-16T13:56:49;6.85;;;2.10;;
68947;SDS011;55996;49.546;7.400;2022-10-16T13:59:48;2.22;;;1.98;;
68947;SDS011;55996;49.546;7.400;2022-10-16T14:02:26;2.60;;;2.40;;
68947;SDS011;55996;49.546;7.400;2022-10-16T14:04:53;4.07;;;2.17;;
68947;SDS011;55996;49.546;7.400;2022-10-16T14:07:23;4.50;;;2.30;;
68947;SDS011;55996;49.546;7.400;2022-10-16T14:09:51;4.57;;;2.42;;
68947;SDS011;55996;49.546;7.400;2022-10-16T14:12:17;4.50;;;2.60;;
68947;SDS011;55996;49.546;7.400;2022-10-16T14:14:44;2.30;;;2.10;;
68947;SDS011;55996;49.546;7.400;2022-10-16T14:17:16;4.00;;;2.57;;
68947;SDS011;55996;49.546;7.400;2022-10-16T14:19:48;4.80;;;2.13;;
68947;SDS011;55996;49.546;7.400;2022-10-16T14:25:02;5.75;;;2.30;;
68947;SDS011;55996;49.546;7.400;2022-10-16T14:27:45;3.60;;;2.30;;
68947;SDS011;55996;49.546;7.400;2022-10-16T14:30:23;5.10;;;2.23;;
68947;SDS011;55996;49.546;7.400;2022-10-16T14:32:53;2.20;;;2.00;;
68947;SDS011;55996;49.546;7.400;2022-10-16T14:37:57;3.15;;;2.30;;
68947;SDS011;55996;49.546;7.400;2022-10-16T14:40:25;5.60;;;2.40;;
68947;SDS011;55996;49.546;7.400;2022-10-16T14:42:52;4.43;;;2.63;;
68947;SDS011;55996;49.546;7.400;2022-10-16T14:45:23;5.77;;;2.87;;
68947;SDS011;55996;49.546;7.400;2022-10-16T14:47:52;4.17;;;2.83;;
68947;SDS011;55996;49.546;7.400;2022-10-16T14:50:21;4.87;;;2.63;;
68947;SDS011;55996;49.546;7.400;2022-10-16T14:52:47;3.40;;;3.07;;
68947;SDS011;55996;49.546;7.400;2022-10-16T14:55:12;5.13;;;3.63;;
68947;SDS011;55996;49.546;7.400;2022-10-16T14:57:38;3.87;;;3.00;;
68947;SDS011;55996;49.546;7.400;2022-10-16T15:00:08;6.63;;;3.10;;
68947;SDS011;55996;49.546;7.400;2022-10-16T15:02:47;4.13;;;2.70;;
68947;SDS011;55996;49.546;7.400;2022-10-16T15:05:18;5.20;;;2.60;;
68947;SDS011;55996;49.546;7.400;2022-10-16T15:07:45;2.50;;;2.30;;
68947;SDS011;55996;49.546;7.400;2022-10-16T15:10:12;9.10;;;2.90;;
68947;SDS011;55996;49.546;7.400;2022-10-16T15:12:39;3.67;;;2.40;;
68947;SDS011;55996;49.546;7.400;2022-10-16T15:15:15;3.17;;;2.65;;
68947;SDS011;55996;49.546;7.400;2022-10-16T15:17:59;3.10;;;2.57;;
68947;SDS011;55996;49.546;7.400;2022-10-16T15:20:30;9.30;;;5.37;;
68947;SDS011;55996;49.546;7.400;2022-10-16T15:22:59;11.20;;;8.33;;
68947;SDS011;55996;49.546;7.400;2022-10-16T15:25:27;8.83;;;5.97;;
68947;SDS011;55996;49.546;7.400;2022-10-16T15:27:54;5.47;;;3.87;;
68947;SDS011;55996;49.546;7.400;2022-10-16T15:30:20;5.20;;;4.00;;
68947;SDS011;55996;49.546;7.400;2022-10-16T15:32:46;6.07;;;5.43;;
68947;SDS011;55996;49.546;7.400;2022-10-16T15:35:11;6.13;;;5.63;;
68947;SDS011;55996;49.546;7.400;2022-10-16T15:37:36;7.57;;;3.93;;
68947;SDS011;55996;49.546;7.400;2022-10-16T15:40:02;5.23;;;3.50;;
68947;SDS011;55996;49.546;7.400;2022-10-16T15:42:28;5.27;;;3.07;;
68947;SDS011;55996;49.546;7.400;2022-10-16T15:44:53;7.17;;;3.30;;
68947;SDS011;55996;49.546;7.400;2022-10-16T15:47:18;4.70;;;3.10;;
68947;SDS011;55996;49.546;7.400;2022-10-16T15:49:44;6.73;;;3.10;;
68947;SDS011;55996;49.546;7.400;2022-10-16T15:52:10;2.90;;;2.70;;
68947;SDS011;55996;49.546;7.400;2022-10-16T15:54:36;3.80;;;3.03;;
68947;SDS011;55996;49.546;7.400;2022-10-16T15:57:02;6.73;;;3.07;;
68947;SDS011;55996;49.546;7.400;2022-10-16T15:59:27;5.43;;;3.37;;
68947;SDS011;55996;49.546;7.400;2022-10-16T16:01:53;10.87;;;3.60;;
68947;SDS011;55996;49.546;7.400;2022-10-16T16:04:18;3.73;;;3.03;;
68947;SDS011;55996;49.546;7.400;2022-10-16T16:06:44;7.43;;;3.57;;
68947;SDS011;55996;49.546;7.400;2022-10-16T16:09:10;5.13;;;3.27;;
68947;SDS011;55996;49.546;7.400;2022-10-16T16:11:37;4.73;;;3.23;;
68947;SDS011;55996;49.546;7.400;2022-10-16T16:14:04;3.73;;;3.10;;
68947;SDS011;55996;49.546;7.400;2022-10-16T16:16:31;4.73;;;3.33;;
68947;SDS011;55996;49.546;7.400;2022-10-16T16:19:01;4.20;;;3.30;;
68947;SDS011;55996;49.546;7.400;2022-10-16T16:21:27;6.00;;;3.40;;
68947;SDS011;55996;49.546;7.400;2022-10-16T16:23:53;9.53;;;3.77;;
68947;SDS011;55996;49.546;7.400;2022-10-16T16:26:22;9.77;;;3.77;;
68947;SDS011;55996;49.546;7.400;2022-10-16T16:28:52;7.50;;;3.03;;
68947;SDS011;55996;49.546;7.400;2022-10-16T16:31:19;7.47;;;3.13;;
68947;SDS011;55996;49.546;7.400;2022-10-16T16:33:44;7.87;;;3.23;;
68947;SDS011;55996;49.546;7.400;2022-10-16T16:36:11;8.47;;;3.63;;
68947;SDS011;55996;49.546;7.400;2022-10-16T16:38:36;8.30;;;3.30;;
68947;SDS011;55996;49.546;7.400;2022-10-16T16:41:14;5.60;;;2.90;;
68947;SDS011;55996;49.546;7.400;2022-10-16T16:43:42;6.40;;;3.57;;
68947;SDS011;55996;49.546;7.400;2022-10-16T16:46:08;6.17;;;3.10;;
68947;SDS011;55996;49.546;7.400;2022-10-16T16:48:34;6.00;;;3.23;;
68947;SDS011;55996;49.546;7.400;2022-10-16T16:51:03;5.60;;;3.30;;
68947;SDS011;55996;49.546;7.400;2022-10-16T16:53:34;7.80;;;3.47;;
68947;SDS011;55996;49.546;7.400;2022-10-16T16:56:00;6.10;;;3.63;;
68947;SDS011;55996;49.546;7.400;2022-10-16T16:58:29;5.17;;;3.03;;
68947;SDS011;55996;49.546;7.400;2022-10-16T17:00:55;4.97;;;3.17;;
68947;SDS011;55996;49.546;7.400;2022-10-16T17:03:21;7.83;;;3.17;;
68947;SDS011;55996;49.546;7.400;2022-10-16T17:06:00;4.93;;;2.87;;
68947;SDS011;55996;49.546;7.400;2022-10-16T17:08:31;3.87;;;3.03;;
68947;SDS011;55996;49.546;7.400;2022-10-16T17:10:57;5.83;;;3.40;;
68947;SDS011;55996;49.546;7.400;2022-10-16T17:13:24;8.37;;;3.33;;
68947;SDS011;55996;49.546;7.400;2022-10-16T17:15:51;5.03;;;3.20;;
68947;SDS011;55996;49.546;7.400;2022-10-16T17:18:17;3.87;;;3.47;;
68947;SDS011;55996;49.546;7.400;2022-10-16T17:20:44;5.30;;;2.90;;